sensor_id;sensor_type;location;lat;lon;timestamp;temperature;humidity
975;DHT22;6115;49.296;10.602;2022-07-22T00:03:42;18.00;63.60
975;DHT22;6115;49.296;10.602;2022-07-22T00:08:43;17.80;64.30
975;DHT22;6115;49.296;10.602;2022-07-22T00:13:43;17.70;64.40
975;DHT22;6115;49.296;10.602;2022-07-22T00:18:45;17.80;64.30
975;DHT22;6115;49.296;10.602;2022-07-22T00:23:46;17.80;63.90
975;DHT22;6115;49.296;10.602;2022-07-22T00:28:46;17.70;63.90
975;DHT22;6115;49.296;10.602;2022-07-22T00:33:47;17.70;64.20
975;DHT22;6115;49.296;10.602;2022-07-22T00:38:48;17.70;64.20
975;DHT22;6115;49.296;10.602;2022-07-22T00:43:54;17.60;64.80
975;DHT22;6115;49.296;10.602;2022-07-22T00:48:55;17.40;66.20
975;DHT22;6115;49.296;10.602;2022-07-22T00:53:56;17.40;66.00
975;DHT22;6115;49.296;10.602;2022-07-22T00:59:00;17.40;66.30
975;DHT22;6115;49.296;10.602;2022-07-22T01:04:01;17.40;66.50
975;DHT22;6115;49.296;10.602;2022-07-22T01:09:02;17.20;67.20
975;DHT22;6115;49.296;10.602;2022-07-22T01:14:03;17.20;67.50
975;DHT22;6115;49.296;10.602;2022-07-22T01:19:04;17.20;67.30
975;DHT22;6115;49.296;10.602;2022-07-22T01:24:05;17.30;67.10
975;DHT22;6115;49.296;10.602;2022-07-22T01:29:07;17.20;67.50
975;DHT22;6115;49.296;10.602;2022-07-22T01:34:08;17.20;67.30
975;DHT22;6115;49.296;10.602;2022-07-22T01:39:09;17.20;67.30
975;DHT22;6115;49.296;10.602;2022-07-22T01:44:09;17.30;67.50
975;DHT22;6115;49.296;10.602;2022-07-22T01:49:10;17.20;67.30
975;DHT22;6115;49.296;10.602;2022-07-22T01:54:11;17.20;67.60
975;DHT22;6115;49.296;10.602;2022-07-22T01:59:11;17.00;68.30
975;DHT22;6115;49.296;10.602;2022-07-22T02:04:12;17.00;68.30
975;DHT22;6115;49.296;10.602;2022-07-22T02:09:12;17.10;68.50
975;DHT22;6115;49.296;10.602;2022-07-22T02:14:13;16.90;68.60
975;DHT22;6115;49.296;10.602;2022-07-22T02:19:14;16.60;69.30
975;DHT22;6115;49.296;10.602;2022-07-22T02:24:15;16.70;68.50
975;DHT22;6115;49.296;10.602;2022-07-22T02:29:15;16.70;68.30
975;DHT22;6115;49.296;10.602;2022-07-22T02:34:16;16.70;68.20
975;DHT22;6115;49.296;10.602;2022-07-22T02:39:17;16.60;68.00
975;DHT22;6115;49.296;10.602;2022-07-22T02:44:18;16.40;68.80
975;DHT22;6115;49.296;10.602;2022-07-22T02:49:18;16.40;69.20
975;DHT22;6115;49.296;10.602;2022-07-22T02:54:19;16.20;70.30
975;DHT22;6115;49.296;10.602;2022-07-22T02:59:20;16.20;70.60
975;DHT22;6115;49.296;10.602;2022-07-22T03:04:20;16.20;70.60
975;DHT22;6115;49.296;10.602;2022-07-22T03:09:21;16.10;70.80
975;DHT22;6115;49.296;10.602;2022-07-22T03:14:21;15.90;70.80
975;DHT22;6115;49.296;10.602;2022-07-22T03:19:22;15.90;71.30
975;DHT22;6115;49.296;10.602;2022-07-22T03:24:23;16.00;71.00
975;DHT22;6115;49.296;10.602;2022-07-22T03:29:23;15.90;70.40
975;DHT22;6115;49.296;10.602;2022-07-22T03:34:24;15.80;70.80
975;DHT22;6115;49.296;10.602;2022-07-22T03:39:24;15.90;70.50
975;DHT22;6115;49.296;10.602;2022-07-22T03:44:25;15.90;70.10
975;DHT22;6115;49.296;10.602;2022-07-22T03:49:26;15.90;70.10
975;DHT22;6115;49.296;10.602;2022-07-22T03:54:28;16.00;70.20
975;DHT22;6115;49.296;10.602;2022-07-22T03:59:28;15.70;70.60
975;DHT22;6115;49.296;10.602;2022-07-22T04:04:29;15.60;71.00
975;DHT22;6115;49.296;10.602;2022-07-22T04:09:30;15.70;71.00
975;DHT22;6115;49.296;10.602;2022-07-22T04:14:31;15.80;70.60
975;DHT22;6115;49.296;10.602;2022-07-22T04:19:31;15.80;70.70
975;DHT22;6115;49.296;10.602;2022-07-22T04:24:32;15.90;70.60
975;DHT22;6115;49.296;10.602;2022-07-22T04:29:32;15.80;70.50
975;DHT22;6115;49.296;10.602;2022-07-22T04:34:33;15.60;70.80
975;DHT22;6115;49.296;10.602;2022-07-22T04:39:33;15.80;70.50
975;DHT22;6115;49.296;10.602;2022-07-22T04:44:34;15.90;70.30
975;DHT22;6115;49.296;10.602;2022-07-22T04:49:35;16.00;70.20
975;DHT22;6115;49.296;10.602;2022-07-22T04:54:36;16.20;70.30
975;DHT22;6115;49.296;10.602;2022-07-22T04:59:36;16.10;70.30
975;DHT22;6115;49.296;10.602;2022-07-22T05:04:37;16.20;70.30
975;DHT22;6115;49.296;10.602;2022-07-22T05:09:37;16.30;70.50
975;DHT22;6115;49.296;10.602;2022-07-22T05:14:38;16.40;70.60
975;DHT22;6115;49.296;10.602;2022-07-22T05:19:39;16.60;70.80
975;DHT22;6115;49.296;10.602;2022-07-22T05:24:39;16.80;71.00
975;DHT22;6115;49.296;10.602;2022-07-22T05:29:40;17.00;71.20
975;DHT22;6115;49.296;10.602;2022-07-22T05:34:41;17.10;71.30
975;DHT22;6115;49.296;10.602;2022-07-22T05:39:43;17.30;71.50
975;DHT22;6115;49.296;10.602;2022-07-22T05:44:43;17.50;71.20
975;DHT22;6115;49.296;10.602;2022-07-22T05:49:44;17.70;71.30
975;DHT22;6115;49.296;10.602;2022-07-22T05:54:44;17.90;70.20
975;DHT22;6115;49.296;10.602;2022-07-22T05:59:45;18.20;69.90
975;DHT22;6115;49.296;10.602;2022-07-22T06:04:45;18.40;69.60
975;DHT22;6115;49.296;10.602;2022-07-22T06:09:46;18.60;68.70
975;DHT22;6115;49.296;10.602;2022-07-22T06:14:46;18.80;68.60
975;DHT22;6115;49.296;10.602;2022-07-22T06:19:47;18.90;68.00
975;DHT22;6115;49.296;10.602;2022-07-22T06:24:48;19.10;67.70
975;DHT22;6115;49.296;10.602;2022-07-22T06:29:49;19.30;66.20
975;DHT22;6115;49.296;10.602;2022-07-22T06:34:49;19.60;64.20
975;DHT22;6115;49.296;10.602;2022-07-22T06:39:50;19.70;63.80
975;DHT22;6115;49.296;10.602;2022-07-22T06:44:51;19.90;62.00
975;DHT22;6115;49.296;10.602;2022-07-22T06:49:52;20.10;62.00
975;DHT22;6115;49.296;10.602;2022-07-22T06:54:53;20.30;61.10
975;DHT22;6115;49.296;10.602;2022-07-22T06:59:53;20.40;59.70
975;DHT22;6115;49.296;10.602;2022-07-22T07:04:54;20.50;60.10
975;DHT22;6115;49.296;10.602;2022-07-22T07:09:57;20.70;59.70
975;DHT22;6115;49.296;10.602;2022-07-22T07:14:57;20.90;58.90
975;DHT22;6115;49.296;10.602;2022-07-22T07:19:58;21.10;59.10
975;DHT22;6115;49.296;10.602;2022-07-22T07:25:04;21.40;58.10
975;DHT22;6115;49.296;10.602;2022-07-22T07:30:06;21.60;57.60
975;DHT22;6115;49.296;10.602;2022-07-22T07:35:07;21.90;57.20
975;DHT22;6115;49.296;10.602;2022-07-22T07:40:10;22.10;56.40
975;DHT22;6115;49.296;10.602;2022-07-22T07:45:10;22.30;56.50
975;DHT22;6115;49.296;10.602;2022-07-22T07:50:11;22.50;55.20
975;DHT22;6115;49.296;10.602;2022-07-22T07:55:12;22.50;55.60
975;DHT22;6115;49.296;10.602;2022-07-22T08:00:14;22.70;54.00
975;DHT22;6115;49.296;10.602;2022-07-22T08:05:15;22.80;54.20
975;DHT22;6115;49.296;10.602;2022-07-22T08:10:17;23.10;53.20
975;DHT22;6115;49.296;10.602;2022-07-22T08:15:18;23.40;52.90
975;DHT22;6115;49.296;10.602;2022-07-22T08:20:18;23.50;53.40
975;DHT22;6115;49.296;10.602;2022-07-22T08:25:19;23.80;51.90
975;DHT22;6115;49.296;10.602;2022-07-22T08:30:21;23.90;50.90
975;DHT22;6115;49.296;10.602;2022-07-22T08:35:23;24.00;50.20
975;DHT22;6115;49.296;10.602;2022-07-22T08:40:25;24.10;50.30
975;DHT22;6115;49.296;10.602;2022-07-22T08:45:26;24.40;48.90
975;DHT22;6115;49.296;10.602;2022-07-22T08:50:29;24.50;48.20
975;DHT22;6115;49.296;10.602;2022-07-22T08:55:30;24.50;48.00
975;DHT22;6115;49.296;10.602;2022-07-22T09:00:31;24.80;47.60
975;DHT22;6115;49.296;10.602;2022-07-22T09:05:34;25.00;46.60
975;DHT22;6115;49.296;10.602;2022-07-22T09:10:38;25.20;46.90
975;DHT22;6115;49.296;10.602;2022-07-22T09:15:45;25.60;45.40
975;DHT22;6115;49.296;10.602;2022-07-22T09:20:46;25.90;45.00
975;DHT22;6115;49.296;10.602;2022-07-22T09:25:47;26.40;44.20
975;DHT22;6115;49.296;10.602;2022-07-22T09:30:50;26.80;42.40
975;DHT22;6115;49.296;10.602;2022-07-22T09:35:52;27.20;42.20
975;DHT22;6115;49.296;10.602;2022-07-22T09:40:52;27.50;41.80
975;DHT22;6115;49.296;10.602;2022-07-22T09:45:56;27.90;41.10
975;DHT22;6115;49.296;10.602;2022-07-22T09:50:58;28.30;39.90
975;DHT22;6115;49.296;10.602;2022-07-22T09:56:01;28.20;39.60
975;DHT22;6115;49.296;10.602;2022-07-22T10:01:05;28.90;39.10
975;DHT22;6115;49.296;10.602;2022-07-22T10:06:06;29.40;38.20
975;DHT22;6115;49.296;10.602;2022-07-22T10:11:07;29.50;36.40
975;DHT22;6115;49.296;10.602;2022-07-22T10:16:09;29.80;37.20
975;DHT22;6115;49.296;10.602;2022-07-22T10:21:11;30.20;35.30
975;DHT22;6115;49.296;10.602;2022-07-22T10:26:11;30.20;33.80
975;DHT22;6115;49.296;10.602;2022-07-22T10:31:23;30.50;34.10
975;DHT22;6115;49.296;10.602;2022-07-22T10:36:34;30.80;33.80
975;DHT22;6115;49.296;10.602;2022-07-22T10:41:45;31.20;32.60
975;DHT22;6115;49.296;10.602;2022-07-22T10:46:53;31.10;32.40
975;DHT22;6115;49.296;10.602;2022-07-22T10:57:07;30.50;34.20
975;DHT22;6115;49.296;10.602;2022-07-22T11:02:10;30.50;33.50
975;DHT22;6115;49.296;10.602;2022-07-22T11:07:12;30.80;32.10
975;DHT22;6115;49.296;10.602;2022-07-22T11:12:13;31.40;31.30
975;DHT22;6115;49.296;10.602;2022-07-22T11:17:14;31.80;30.40
975;DHT22;6115;49.296;10.602;2022-07-22T11:22:14;32.20;30.00
975;DHT22;6115;49.296;10.602;2022-07-22T11:27:18;32.30;29.70
975;DHT22;6115;49.296;10.602;2022-07-22T11:32:20;31.90;30.00
975;DHT22;6115;49.296;10.602;2022-07-22T11:37:23;31.80;29.90
975;DHT22;6115;49.296;10.602;2022-07-22T11:42:27;31.30;29.70
975;DHT22;6115;49.296;10.602;2022-07-22T11:47:27;31.60;29.80
975;DHT22;6115;49.296;10.602;2022-07-22T11:52:28;32.00;30.00
975;DHT22;6115;49.296;10.602;2022-07-22T11:57:28;32.20;28.90
975;DHT22;6115;49.296;10.602;2022-07-22T12:02:29;32.10;29.40
975;DHT22;6115;49.296;10.602;2022-07-22T12:07:30;32.50;29.30
975;DHT22;6115;49.296;10.602;2022-07-22T12:12:39;33.00;28.50
975;DHT22;6115;49.296;10.602;2022-07-22T12:17:40;33.00;27.60
975;DHT22;6115;49.296;10.602;2022-07-22T12:22:44;33.30;28.10
975;DHT22;6115;49.296;10.602;2022-07-22T12:27:59;32.80;27.40
975;DHT22;6115;49.296;10.602;2022-07-22T12:33:01;32.40;27.10
975;DHT22;6115;49.296;10.602;2022-07-22T12:38:06;33.00;27.20
975;DHT22;6115;49.296;10.602;2022-07-22T12:43:09;33.10;27.20
975;DHT22;6115;49.296;10.602;2022-07-22T12:48:09;33.40;25.60
975;DHT22;6115;49.296;10.602;2022-07-22T12:53:16;33.80;24.70
975;DHT22;6115;49.296;10.602;2022-07-22T12:58:16;33.80;26.00
975;DHT22;6115;49.296;10.602;2022-07-22T13:03:18;33.70;26.00
975;DHT22;6115;49.296;10.602;2022-07-22T13:08:23;33.90;25.40
975;DHT22;6115;49.296;10.602;2022-07-22T13:13:23;34.50;25.60
975;DHT22;6115;49.296;10.602;2022-07-22T13:18:24;34.90;24.80
975;DHT22;6115;49.296;10.602;2022-07-22T13:23:25;34.90;23.60
975;DHT22;6115;49.296;10.602;2022-07-22T13:28:25;34.50;24.40
975;DHT22;6115;49.296;10.602;2022-07-22T13:33:26;34.70;24.60
975;DHT22;6115;49.296;10.602;2022-07-22T13:38:26;34.70;23.80
975;DHT22;6115;49.296;10.602;2022-07-22T13:43:27;34.70;24.70
975;DHT22;6115;49.296;10.602;2022-07-22T13:48:27;35.30;23.80
975;DHT22;6115;49.296;10.602;2022-07-22T13:53:28;35.30;23.80
975;DHT22;6115;49.296;10.602;2022-07-22T13:58:29;35.30;23.80
975;DHT22;6115;49.296;10.602;2022-07-22T14:03:30;36.00;24.10
975;DHT22;6115;49.296;10.602;2022-07-22T14:08:31;36.10;24.00
975;DHT22;6115;49.296;10.602;2022-07-22T14:13:31;36.40;23.00
975;DHT22;6115;49.296;10.602;2022-07-22T14:18:32;36.60;22.30
975;DHT22;6115;49.296;10.602;2022-07-22T14:23:33;36.40;22.50
975;DHT22;6115;49.296;10.602;2022-07-22T14:28:33;37.50;21.70
975;DHT22;6115;49.296;10.602;2022-07-22T14:33:34;38.00;20.60
975;DHT22;6115;49.296;10.602;2022-07-22T14:38:34;38.20;20.50
975;DHT22;6115;49.296;10.602;2022-07-22T14:43:35;39.40;19.40
975;DHT22;6115;49.296;10.602;2022-07-22T14:48:38;38.90;19.40
975;DHT22;6115;49.296;10.602;2022-07-22T14:53:38;38.70;19.60
975;DHT22;6115;49.296;10.602;2022-07-22T14:58:39;39.00;18.50
975;DHT22;6115;49.296;10.602;2022-07-22T15:03:40;40.10;18.00
975;DHT22;6115;49.296;10.602;2022-07-22T15:08:40;40.30;18.10
975;DHT22;6115;49.296;10.602;2022-07-22T15:13:41;39.90;18.00
975;DHT22;6115;49.296;10.602;2022-07-22T15:18:42;39.40;18.00
975;DHT22;6115;49.296;10.602;2022-07-22T15:23:43;39.30;17.60
975;DHT22;6115;49.296;10.602;2022-07-22T15:28:44;38.60;18.40
975;DHT22;6115;49.296;10.602;2022-07-22T15:33:47;37.90;18.90
975;DHT22;6115;49.296;10.602;2022-07-22T15:38:50;38.50;18.90
975;DHT22;6115;49.296;10.602;2022-07-22T15:43:50;38.20;18.90
975;DHT22;6115;49.296;10.602;2022-07-22T15:48:51;38.70;19.10
975;DHT22;6115;49.296;10.602;2022-07-22T15:53:51;38.20;18.90
975;DHT22;6115;49.296;10.602;2022-07-22T15:58:52;38.00;19.10
975;DHT22;6115;49.296;10.602;2022-07-22T16:04:11;38.10;18.90
975;DHT22;6115;49.296;10.602;2022-07-22T16:09:11;37.40;19.60
975;DHT22;6115;49.296;10.602;2022-07-22T16:14:12;36.80;20.00
975;DHT22;6115;49.296;10.602;2022-07-22T16:19:13;36.40;20.40
975;DHT22;6115;49.296;10.602;2022-07-22T16:24:14;35.90;20.40
975;DHT22;6115;49.296;10.602;2022-07-22T16:29:15;35.40;21.10
975;DHT22;6115;49.296;10.602;2022-07-22T16:34:15;35.20;21.30
975;DHT22;6115;49.296;10.602;2022-07-22T16:39:16;34.90;21.70
975;DHT22;6115;49.296;10.602;2022-07-22T16:44:17;34.40;22.20
975;DHT22;6115;49.296;10.602;2022-07-22T16:49:17;34.10;22.20
975;DHT22;6115;49.296;10.602;2022-07-22T16:54:18;33.70;23.00
975;DHT22;6115;49.296;10.602;2022-07-22T16:59:18;33.40;22.90
975;DHT22;6115;49.296;10.602;2022-07-22T17:04:19;33.30;23.10
975;DHT22;6115;49.296;10.602;2022-07-22T17:09:19;33.10;23.70
975;DHT22;6115;49.296;10.602;2022-07-22T17:14:20;32.70;24.80
975;DHT22;6115;49.296;10.602;2022-07-22T17:19:21;32.70;24.40
975;DHT22;6115;49.296;10.602;2022-07-22T17:24:21;32.60;24.50
975;DHT22;6115;49.296;10.602;2022-07-22T17:29:22;32.40;24.60
975;DHT22;6115;49.296;10.602;2022-07-22T17:34:22;32.40;24.80
975;DHT22;6115;49.296;10.602;2022-07-22T17:39:23;32.60;24.90
975;DHT22;6115;49.296;10.602;2022-07-22T17:44:23;32.70;24.30
975;DHT22;6115;49.296;10.602;2022-07-22T17:49:24;32.60;24.30
975;DHT22;6115;49.296;10.602;2022-07-22T17:54:25;32.50;24.40
975;DHT22;6115;49.296;10.602;2022-07-22T17:59:25;32.40;24.60
975;DHT22;6115;49.296;10.602;2022-07-22T18:04:26;32.20;25.20
975;DHT22;6115;49.296;10.602;2022-07-22T18:09:27;32.20;25.40
975;DHT22;6115;49.296;10.602;2022-07-22T18:14:27;32.20;25.60
975;DHT22;6115;49.296;10.602;2022-07-22T18:19:28;31.90;26.60
975;DHT22;6115;49.296;10.602;2022-07-22T18:24:28;31.60;27.60
975;DHT22;6115;49.296;10.602;2022-07-22T18:29:29;31.30;28.60
975;DHT22;6115;49.296;10.602;2022-07-22T18:34:29;31.10;29.10
975;DHT22;6115;49.296;10.602;2022-07-22T18:39:30;30.80;29.40
975;DHT22;6115;49.296;10.602;2022-07-22T18:44:31;30.40;29.20
975;DHT22;6115;49.296;10.602;2022-07-22T18:49:31;30.30;29.90
975;DHT22;6115;49.296;10.602;2022-07-22T18:54:32;30.10;30.10
975;DHT22;6115;49.296;10.602;2022-07-22T18:59:32;29.80;30.40
975;DHT22;6115;49.296;10.602;2022-07-22T19:04:33;29.70;31.60
975;DHT22;6115;49.296;10.602;2022-07-22T19:09:33;29.50;31.40
975;DHT22;6115;49.296;10.602;2022-07-22T19:14:34;29.20;31.80
975;DHT22;6115;49.296;10.602;2022-07-22T19:19:35;29.00;32.50
975;DHT22;6115;49.296;10.602;2022-07-22T19:24:35;28.80;32.60
975;DHT22;6115;49.296;10.602;2022-07-22T19:29:36;28.60;33.10
975;DHT22;6115;49.296;10.602;2022-07-22T19:34:37;28.40;33.40
975;DHT22;6115;49.296;10.602;2022-07-22T19:39:37;28.20;33.80
975;DHT22;6115;49.296;10.602;2022-07-22T19:44:38;28.10;34.20
975;DHT22;6115;49.296;10.602;2022-07-22T19:49:38;28.00;34.40
975;DHT22;6115;49.296;10.602;2022-07-22T19:54:39;27.90;34.70
975;DHT22;6115;49.296;10.602;2022-07-22T19:59:39;27.70;35.50
975;DHT22;6115;49.296;10.602;2022-07-22T20:04:40;27.50;36.10
975;DHT22;6115;49.296;10.602;2022-07-22T20:09:41;27.40;36.50
975;DHT22;6115;49.296;10.602;2022-07-22T20:14:42;27.30;36.40
975;DHT22;6115;49.296;10.602;2022-07-22T20:19:43;27.20;36.30
975;DHT22;6115;49.296;10.602;2022-07-22T20:24:43;27.10;36.70
975;DHT22;6115;49.296;10.602;2022-07-22T20:29:44;26.90;36.60
975;DHT22;6115;49.296;10.602;2022-07-22T20:34:45;26.90;36.60
975;DHT22;6115;49.296;10.602;2022-07-22T20:39:45;26.90;36.60
975;DHT22;6115;49.296;10.602;2022-07-22T20:44:46;26.80;37.10
975;DHT22;6115;49.296;10.602;2022-07-22T20:49:46;26.70;37.60
975;DHT22;6115;49.296;10.602;2022-07-22T20:54:47;26.60;37.90
975;DHT22;6115;49.296;10.602;2022-07-22T20:59:48;26.40;38.00
975;DHT22;6115;49.296;10.602;2022-07-22T21:04:49;26.20;39.00
975;DHT22;6115;49.296;10.602;2022-07-22T21:09:50;26.10;40.20
975;DHT22;6115;49.296;10.602;2022-07-22T21:14:50;25.90;40.00
975;DHT22;6115;49.296;10.602;2022-07-22T21:19:51;25.70;41.10
975;DHT22;6115;49.296;10.602;2022-07-22T21:24:52;25.60;41.10
975;DHT22;6115;49.296;10.602;2022-07-22T21:29:52;25.30;41.60
975;DHT22;6115;49.296;10.602;2022-07-22T21:34:53;25.20;42.60
975;DHT22;6115;49.296;10.602;2022-07-22T21:39:53;25.10;42.70
975;DHT22;6115;49.296;10.602;2022-07-22T21:44:54;25.00;43.30
975;DHT22;6115;49.296;10.602;2022-07-22T21:49:54;24.80;44.60
975;DHT22;6115;49.296;10.602;2022-07-22T21:54:55;24.50;44.50
975;DHT22;6115;49.296;10.602;2022-07-22T21:59:56;24.40;45.00
975;DHT22;6115;49.296;10.602;2022-07-22T22:04:56;24.30;45.20
975;DHT22;6115;49.296;10.602;2022-07-22T22:09:57;24.30;45.60
975;DHT22;6115;49.296;10.602;2022-07-22T22:14:57;24.20;45.40
975;DHT22;6115;49.296;10.602;2022-07-22T22:19:58;24.20;45.50
975;DHT22;6115;49.296;10.602;2022-07-22T22:24:59;24.20;45.40
975;DHT22;6115;49.296;10.602;2022-07-22T22:30:00;24.20;45.70
975;DHT22;6115;49.296;10.602;2022-07-22T22:35:01;24.20;46.30
975;DHT22;6115;49.296;10.602;2022-07-22T22:40:02;24.10;45.80
975;DHT22;6115;49.296;10.602;2022-07-22T22:45:03;24.00;46.50
975;DHT22;6115;49.296;10.602;2022-07-22T22:50:05;23.50;50.30
975;DHT22;6115;49.296;10.602;2022-07-22T22:55:06;22.90;56.20
975;DHT22;6115;49.296;10.602;2022-07-22T23:00:07;22.50;58.10
975;DHT22;6115;49.296;10.602;2022-07-22T23:05:09;22.40;57.10
975;DHT22;6115;49.296;10.602;2022-07-22T23:10:09;22.40;56.60
975;DHT22;6115;49.296;10.602;2022-07-22T23:15:10;22.30;57.70
975;DHT22;6115;49.296;10.602;2022-07-22T23:20:11;22.40;58.50
975;DHT22;6115;49.296;10.602;2022-07-22T23:25:11;22.40;56.60
975;DHT22;6115;49.296;10.602;2022-07-22T23:30:12;22.30;56.10
975;DHT22;6115;49.296;10.602;2022-07-22T23:35:13;22.20;56.40
975;DHT22;6115;49.296;10.602;2022-07-22T23:40:13;22.20;56.70
975;DHT22;6115;49.296;10.602;2022-07-22T23:45:14;22.20;56.90
975;DHT22;6115;49.296;10.602;2022-07-22T23:50:15;22.20;56.60
975;DHT22;6115;49.296;10.602;2022-07-22T23:55:16;22.00;57.10
